Terminal Aerodrome Forecast
Issued by NWS

Home | Current Version | Previous Version | Text Only | Print | Product List | Glossary On
Versions: 1 2 3 4 5 6 7 8 9 10 11 12 13 14 15 16 17 18 19 20 21 22 23 24 25 26 27 28 29 30
000
FTAK31 PANC 301732
TAFADL
TAF
PADL 301732Z 3018/0118 05011KT P6SM -RA OVC030 WS020/12025KT
      TEMPO 3018/3022 04014G26KT
     FM302200 04014G26KT P6SM -SHRA BKN030 OVC050
     FM010700 10009KT P6SM SCT030 BKN050=

USA.gov is the U.S. government's official web portal to all federal, state and local government web resources and services.